Time;durP1;ratioP1;P1;durP2;ratioP2;P2;SDS_P1;SDS_P2;PMS_P1;PMS_P2;Temp;Humidity;BMP_temperature;BMP_pressure;BME280_temperature;BME280_humidity;BME280_pressure;Samples;Min_cycle;Max_cycle;Signal;HPM_P1;HPM_P2
2023/11/09 00:02:16;;;;;;;11.85;1.85;;;;;;;4.91;100.00;98433.63;4903013;28;20039;-95
2023/11/09 00:04:42;;;;;;;10.20;2.00;;;;;;;4.97;100.00;98432.97;4934729;29;20031;-96
2023/11/09 00:07:09;;;;;;;8.95;1.67;;;;;;;4.97;100.00;98439.06;4940434;28;20039;-95
2023/11/09 00:09:35;;;;;;;7.75;1.67;;;;;;;5.04;100.00;98443.66;4937472;29;20039;-94
2023/11/09 00:12:01;;;;;;;13.00;2.08;;;;;;;5.09;100.00;98441.38;4921818;28;20059;-95
2023/11/09 00:14:27;;;;;;;4.55;1.13;;;;;;;5.14;100.00;98440.91;4897787;28;20069;-95
2023/11/09 00:16:53;;;;;;;9.68;2.25;;;;;;;5.11;100.00;98438.59;4902230;29;20039;-94
2023/11/09 00:19:19;;;;;;;8.50;2.15;;;;;;;5.16;100.00;98434.53;4920131;29;20061;-94
2023/11/09 00:21:46;;;;;;;4.72;1.38;;;;;;;5.17;100.00;98433.56;4896855;29;20506;-94
2023/11/09 00:24:15;;;;;;;11.75;2.40;;;;;;;5.22;100.00;98422.59;4936468;29;20031;-94
2023/11/09 00:26:45;;;;;;;8.95;1.58;;;;;;;5.15;100.00;98414.56;4920333;29;20034;-94
2023/11/09 00:29:12;;;;;;;7.10;1.58;;;;;;;5.15;100.00;98413.72;4922429;29;20494;-94
2023/11/09 00:31:38;;;;;;;8.40;1.27;;;;;;;5.16;100.00;98418.81;4944310;29;20118;-94
2023/11/09 00:34:04;;;;;;;10.25;1.75;;;;;;;5.19;100.00;98421.09;4954141;28;20131;-94
2023/11/09 00:36:31;;;;;;;6.80;1.90;;;;;;;5.20;100.00;98403.59;4905648;29;20031;-94
2023/11/09 00:38:58;;;;;;;12.77;2.10;;;;;;;5.27;100.00;98411.66;4922259;28;20039;-94
2023/11/09 00:41:24;;;;;;;7.65;1.67;;;;;;;5.33;100.00;98411.00;4898453;29;20058;-94
2023/11/09 00:43:53;;;;;;;10.05;1.98;;;;;;;5.34;100.00;98405.59;4934299;28;20081;-95
2023/11/09 00:46:19;;;;;;;13.40;2.95;;;;;;;5.32;100.00;98399.69;4934290;28;20040;-91
2023/11/09 00:48:46;;;;;;;6.60;1.27;;;;;;;5.37;100.00;98403.66;4900494;29;20044;-92
2023/11/09 00:51:12;;;;;;;13.18;1.70;;;;;;;5.38;100.00;98389.56;4912220;29;20421;-94
2023/11/09 00:53:37;;;;;;;12.70;1.67;;;;;;;5.37;100.00;98383.50;4915664;29;20046;-94
2023/11/09 00:56:10;;;;;;;6.97;1.55;;;;;;;5.48;100.00;98402.53;4915294;29;20040;-95
2023/11/09 00:58:49;;;;;;;11.30;1.60;;;;;;;5.43;100.00;98398.56;4883229;29;20044;-94
2023/11/09 01:01:34;;;;;;;9.40;1.70;;;;;;;5.42;100.00;98396.09;4900473;29;20035;-95
2023/11/09 01:04:00;;;;;;;7.43;1.30;;;;;;;5.41;100.00;98386.63;4914049;29;20036;-95
2023/11/09 01:06:37;;;;;;;6.25;1.38;;;;;;;5.42;100.00;98381.22;4899277;29;20032;-95
2023/11/09 01:09:16;;;;;;;5.63;1.30;;;;;;;5.39;100.00;98375.47;4897835;29;20048;-95
2023/11/09 01:11:47;;;;;;;8.13;2.03;;;;;;;5.34;100.00;98379.41;4894291;29;20073;-95
2023/11/09 01:14:43;;;;;;;;;;;;;;;;;;;;;
2023/11/09 01:17:27;;;;;;;10.70;1.58;;;;;;;5.25;100.00;98358.59;4892263;29;20099;-93
2023/11/09 01:20:06;;;;;;;5.95;1.60;;;;;;;5.32;100.00;98372.66;4885976;29;20043;-92
2023/11/09 01:22:43;;;;;;;9.80;1.63;;;;;;;5.27;100.00;98367.91;4895037;29;20036;-95
2023/11/09 01:25:10;;;;;;;6.60;1.63;;;;;;;5.26;100.00;98361.06;4876092;29;20035;-95
2023/11/09 01:27:35;;;;;;;28.20;4.20;;;;;;;5.22;100.00;98347.44;4879377;29;20043;-95
2023/11/09 01:30:01;;;;;;;6.05;1.48;;;;;;;5.22;100.00;98344.03;4902990;29;20044;-95
2023/11/09 01:32:28;;;;;;;9.55;1.63;;;;;;;5.21;100.00;98345.00;4893208;29;20070;-95
2023/11/09 01:34:54;;;;;;;4.22;1.20;;;;;;;5.24;100.00;98341.25;4909986;29;20036;-95
2023/11/09 01:37:20;;;;;;;8.65;1.23;;;;;;;5.20;100.00;98328.47;4934527;29;20039;-94
2023/11/09 01:39:47;;;;;;;10.10;2.03;;;;;;;5.17;100.00;98313.09;4898240;29;20056;-94
2023/11/09 01:42:13;;;;;;;12.10;1.77;;;;;;;5.20;100.00;98327.66;4933814;29;20048;-95
2023/11/09 01:44:39;;;;;;;12.38;1.45;;;;;;;5.18;100.00;98326.97;4888154;29;20141;-95
2023/11/09 01:47:04;;;;;;;12.85;1.85;;;;;;;5.07;100.00;98315.03;4913737;29;20047;-95
2023/11/09 01:49:40;;;;;;;6.88;1.25;;;;;;;5.15;100.00;98319.44;4922099;29;20035;-95
2023/11/09 01:52:16;;;;;;;18.15;1.40;;;;;;;5.08;100.00;98317.47;4936261;29;20139;-94
2023/11/09 01:54:49;;;;;;;8.23;0.95;;;;;;;5.11;100.00;98318.97;4919103;29;20043;-95
2023/11/09 01:57:22;;;;;;;10.48;2.50;;;;;;;5.08;100.00;98321.91;4937343;29;20038;-95
2023/11/09 01:59:58;;;;;;;11.00;1.35;;;;;;;5.04;100.00;98323.19;4936259;29;20036;-95
2023/11/09 02:02:36;;;;;;;6.97;1.13;;;;;;;5.14;100.00;98326.50;4919561;29;20400;-95
2023/11/09 02:05:22;;;;;;;10.88;1.20;;;;;;;5.16;100.00;98314.06;4951646;29;20047;-94
2023/11/09 02:07:49;;;;;;;9.18;1.15;;;;;;;5.15;100.00;98312.44;4906202;29;20059;-95
2023/11/09 02:10:15;;;;;;;8.23;1.20;;;;;;;5.23;100.00;98316.84;4917368;29;20035;-95
2023/11/09 02:12:42;;;;;;;8.23;1.13;;;;;;;5.24;100.00;98308.00;4919531;29;20130;-95
2023/11/09 02:15:09;;;;;;;8.77;1.35;;;;;;;5.27;100.00;98305.06;4920147;29;20161;-94
2023/11/09 02:18:01;;;;;;;8.73;1.52;;;;;;;5.29;100.00;98297.03;4929181;29;20042;-95
2023/11/09 02:20:42;;;;;;;8.98;1.40;;;;;;;5.38;100.00;98301.31;4949113;28;20039;-95
2023/11/09 02:23:32;;;;;;;8.73;1.52;;;;;;;5.41;100.00;98311.47;4916112;29;20555;-96
2023/11/09 02:25:59;;;;;;;8.40;1.02;;;;;;;5.41;100.00;98305.41;4924507;29;20476;-94
2023/11/09 02:28:36;;;;;;;8.75;1.30;;;;;;;5.41;100.00;98295.75;4919951;29;20136;-95
2023/11/09 02:31:15;;;;;;;10.50;1.33;;;;;;;5.32;100.00;98294.09;4922692;29;20040;-95
2023/11/09 02:33:52;;;;;;;9.60;1.63;;;;;;;5.36;100.00;98282.31;4953112;29;20041;-94
2023/11/09 02:36:46;;;;;;;;;;;;;;;;;;;;;
2023/11/09 02:39:18;;;;;;;8.75;1.10;;;;;;;5.34;100.00;98263.31;4922424;29;20039;-95
2023/11/09 02:41:50;;;;;;;8.98;1.45;;;;;;;5.40;100.00;98260.03;4921936;29;20055;-95
2023/11/09 02:44:24;;;;;;;5.43;1.25;;;;;;;5.46;100.00;98269.84;4938044;29;20468;-95
2023/11/09 02:47:08;;;;;;;8.10;1.00;;;;;;;5.40;100.00;98265.28;4952657;28;20048;-95
2023/11/09 02:49:45;;;;;;;5.43;1.00;;;;;;;5.41;100.00;98258.22;4925022;29;20051;-95
2023/11/09 02:52:14;;;;;;;3.60;0.70;;;;;;;5.34;100.00;98240.56;4910906;29;20050;-94
2023/11/09 02:54:42;;;;;;;6.53;0.80;;;;;;;5.34;100.00;98235.31;4910389;29;20051;-94
2023/11/09 02:57:17;;;;;;;8.38;0.70;;;;;;;5.36;100.00;98229.09;4925684;29;20063;-95
2023/11/09 03:00:05;;;;;;;3.85;0.65;;;;;;;5.30;100.00;98210.41;4920218;28;20031;-95
2023/11/09 03:02:59;;;;;;;4.13;0.82;;;;;;;5.29;100.00;98210.59;4954726;28;20064;-95
2023/11/09 03:05:30;;;;;;;3.03;0.50;;;;;;;5.31;100.00;98208.63;4921834;28;20504;-95
2023/11/09 03:08:32;;;;;;;6.47;0.88;;;;;;;5.27;100.00;98213.38;4926321;29;20130;-96
2023/11/09 03:11:07;;;;;;;8.95;1.10;;;;;;;5.19;100.00;98201.09;4922607;29;20047;-96
2023/11/09 03:13:42;;;;;;;6.82;0.90;;;;;;;5.20;100.00;98188.84;4918556;29;20039;-96
2023/11/09 03:16:13;;;;;;;5.95;0.75;;;;;;;5.17;100.00;98184.75;4950757;29;20036;-96
2023/11/09 03:19:06;;;;;;;8.02;1.95;;;;;;;5.20;100.00;98181.81;4921360;29;20046;-96
2023/11/09 03:21:40;;;;;;;5.95;0.60;;;;;;;5.11;100.00;98166.25;4933900;29;20047;-96
2023/11/09 03:24:06;;;;;;;7.10;0.80;;;;;;;5.11;100.00;98171.50;4952309;28;20105;-95
2023/11/09 03:26:34;;;;;;;6.88;0.82;;;;;;;5.13;100.00;98167.72;4923133;29;20031;-94
2023/11/09 03:29:00;;;;;;;6.05;0.65;;;;;;;5.06;100.00;98154.50;4939057;29;20110;-95
2023/11/09 03:31:26;;;;;;;6.13;1.70;;;;;;;5.02;100.00;98145.31;4905705;29;20047;-96
2023/11/09 03:33:52;;;;;;;3.42;0.60;;;;;;;4.97;100.00;98140.59;4909295;29;20035;-95
2023/11/09 03:36:18;;;;;;;2.20;0.60;;;;;;;5.02;100.00;98142.69;4938449;29;20391;-94
2023/11/09 03:38:45;;;;;;;5.97;1.98;;;;;;;4.98;100.00;98125.69;4923107;29;20054;-95
2023/11/09 03:41:11;;;;;;;6.30;0.90;;;;;;;4.97;100.00;98134.53;4927095;28;20105;-95
2023/11/09 03:43:37;;;;;;;6.00;0.82;;;;;;;4.93;100.00;98125.38;4940119;28;20030;-96
2023/11/09 03:46:03;;;;;;;3.05;0.50;;;;;;;4.87;100.00;98124.25;4901870;28;20059;-95
2023/11/09 03:48:29;;;;;;;4.63;0.70;;;;;;;4.87;100.00;98133.88;4903947;29;20426;-94
2023/11/09 03:50:54;;;;;;;3.65;0.75;;;;;;;4.86;100.00;98147.97;4934909;28;20031;-95
2023/11/09 03:53:20;;;;;;;7.05;1.15;;;;;;;4.82;100.00;98150.09;4906913;29;20492;-95
2023/11/09 03:55:46;;;;;;;4.90;0.60;;;;;;;4.79;100.00;98150.41;4906519;29;20504;-96
2023/11/09 03:58:12;;;;;;;4.18;0.70;;;;;;;4.79;100.00;98135.53;4921996;29;20098;-95
2023/11/09 04:00:38;;;;;;;6.80;1.27;;;;;;;4.79;100.00;98127.69;4921406;28;20043;-95
2023/11/09 04:03:06;;;;;;;5.13;0.90;;;;;;;4.76;100.00;98116.72;4922648;29;20042;-95
2023/11/09 04:05:32;;;;;;;6.25;1.45;;;;;;;4.70;100.00;98107.72;4901689;29;20042;-95
2023/11/09 04:07:57;;;;;;;5.78;0.70;;;;;;;4.75;100.00;98110.66;4922968;29;20023;-96
2023/11/09 04:10:23;;;;;;;6.47;0.75;;;;;;;4.73;100.00;98112.63;4942018;28;20035;-95
2023/11/09 04:12:49;;;;;;;10.55;0.95;;;;;;;4.74;100.00;98095.13;4914261;29;20043;-95
2023/11/09 04:15:15;;;;;;;6.22;0.60;;;;;;;4.75;100.00;98092.34;4906879;28;20042;-95
2023/11/09 04:17:40;;;;;;;6.20;0.80;;;;;;;4.78;100.00;98096.44;4922639;28;20050;-95
2023/11/09 04:20:07;;;;;;;4.00;0.85;;;;;;;4.76;100.00;98083.50;4952349;29;20098;-95
2023/11/09 04:22:33;;;;;;;4.20;0.73;;;;;;;4.77;100.00;98085.16;4903838;29;20043;-95
2023/11/09 04:24:59;;;;;;;4.10;0.63;;;;;;;4.75;100.00;98079.25;4953420;28;20046;-96
2023/11/09 04:27:25;;;;;;;4.82;0.73;;;;;;;4.77;100.00;98066.00;4938243;29;20045;-95
2023/11/09 04:29:50;;;;;;;6.55;1.23;;;;;;;4.79;100.00;98072.72;4941491;29;20039;-94
2023/11/09 04:32:18;;;;;;;8.00;0.77;;;;;;;4.78;100.00;98078.13;4922296;28;20476;-95
2023/11/09 04:34:46;;;;;;;3.58;0.57;;;;;;;4.83;100.00;98087.09;4902791;29;20102;-95
2023/11/09 04:37:13;;;;;;;6.80;0.75;;;;;;;4.86;100.00;98091.19;4915209;29;20062;-95
2023/11/09 04:39:43;;;;;;;8.57;0.75;;;;;;;4.89;100.00;98088.22;4938104;28;20102;-94
2023/11/09 04:42:11;;;;;;;6.28;0.80;;;;;;;4.86;100.00;98100.84;4938385;29;20083;-94
2023/11/09 04:44:39;;;;;;;9.27;0.90;;;;;;;4.87;100.00;98099.84;4922527;29;20047;-95
2023/11/09 04:47:10;;;;;;;3.67;0.70;;;;;;;4.89;100.00;98092.66;4906506;29;20054;-95
2023/11/09 04:49:37;;;;;;;7.15;1.27;;;;;;;4.94;100.00;98104.25;4903386;29;20480;-95
2023/11/09 04:52:05;;;;;;;6.68;1.10;;;;;;;4.93;100.00;98097.41;4936298;28;20488;-95
2023/11/09 04:54:44;;;;;;;7.18;0.70;;;;;;;4.99;100.00;98101.16;4947098;28;20031;-95
2023/11/09 05:07:52;;;;;;;3.95;0.60;;;;;;;4.99;100.00;98056.63;4934782;28;20040;-95
2023/11/09 05:10:17;;;;;;;3.35;0.45;;;;;;;4.93;100.00;98041.59;4922317;29;20039;-95
2023/11/09 05:12:43;;;;;;;4.55;0.82;;;;;;;4.85;100.00;98034.59;4926588;28;20472;-95
2023/11/09 05:15:10;;;;;;;7.82;0.73;;;;;;;4.77;100.00;98031.97;4926559;29;20039;-95
2023/11/09 05:17:36;;;;;;;4.43;0.50;;;;;;;4.70;100.00;98030.03;4912835;29;20035;-94
2023/11/09 05:20:05;;;;;;;5.75;0.98;;;;;;;4.67;100.00;98025.13;4909308;29;20126;-94
2023/11/09 05:22:31;;;;;;;8.07;0.80;;;;;;;4.63;100.00;98033.47;4911746;28;20384;-94
2023/11/09 05:24:56;;;;;;;7.45;0.95;;;;;;;4.57;100.00;98027.13;4926024;29;20042;-96
2023/11/09 05:27:22;;;;;;;7.95;0.80;;;;;;;4.55;100.00;98029.91;4928546;28;20036;-94
2023/11/09 05:29:48;;;;;;;7.90;0.60;;;;;;;4.51;100.00;98027.78;4920784;29;20035;-94
2023/11/09 05:32:14;;;;;;;5.88;0.80;;;;;;;4.48;100.00;98026.28;4926437;29;20039;-94
2023/11/09 05:34:40;;;;;;;3.95;0.80;;;;;;;4.45;100.00;98010.94;4906509;29;20038;-94
2023/11/09 05:37:06;;;;;;;5.43;0.93;;;;;;;4.46;100.00;98012.56;4961343;28;20043;-94
2023/11/09 05:39:33;;;;;;;2.92;0.60;;;;;;;4.45;100.00;98003.91;4906597;28;20047;-95
2023/11/09 05:41:59;;;;;;;7.82;0.60;;;;;;;4.42;100.00;97998.19;4926039;29;20031;-95
2023/11/09 05:44:26;;;;;;;4.93;0.70;;;;;;;4.45;100.00;98017.00;4906742;29;20038;-94
2023/11/09 05:46:54;;;;;;;1.67;0.40;;;;;;;4.42;100.00;98006.03;4902335;29;20122;-94
2023/11/09 05:49:21;;;;;;;6.03;0.68;;;;;;;4.32;100.00;97993.13;4950281;29;20103;-94
2023/11/09 05:51:48;;;;;;;3.90;0.80;;;;;;;4.28;100.00;97991.81;4923239;29;20036;-94
2023/11/09 05:54:14;;;;;;;2.78;0.50;;;;;;;4.24;100.00;97990.53;4922707;29;20051;-94
2023/11/09 05:56:41;;;;;;;5.40;0.77;;;;;;;4.18;100.00;97986.75;4953997;29;20040;-95
2023/11/09 05:59:09;;;;;;;6.38;0.88;;;;;;;4.13;100.00;97974.19;4938456;29;20032;-95
2023/11/09 06:01:35;;;;;;;5.95;0.70;;;;;;;4.10;100.00;97964.06;4922607;29;20039;-95
2023/11/09 06:04:03;;;;;;;4.10;0.55;;;;;;;4.03;100.00;97950.81;4926177;29;20396;-95
2023/11/09 06:06:32;;;;;;;6.82;0.80;;;;;;;3.99;100.00;97933.00;4921302;29;20388;-95
2023/11/09 06:08:59;;;;;;;7.45;1.23;;;;;;;3.88;100.00;97936.78;4909529;29;20050;-95
2023/11/09 06:11:25;;;;;;;8.13;0.80;;;;;;;3.90;100.00;97943.47;4919772;29;20032;-94
2023/11/09 06:13:54;;;;;;;7.78;0.73;;;;;;;3.86;100.00;97950.00;4946247;29;20385;-94
2023/11/09 06:16:20;;;;;;;3.15;0.73;;;;;;;3.89;100.00;97954.91;4937257;29;20043;-96
2023/11/09 06:18:46;;;;;;;4.47;0.65;;;;;;;3.94;100.00;97959.63;4923919;29;20152;-95
2023/11/09 06:21:12;;;;;;;4.68;0.55;;;;;;;3.92;100.00;97949.34;4905886;29;20036;-94
2023/11/09 06:23:37;;;;;;;4.82;0.98;;;;;;;3.95;100.00;97937.78;4920768;29;20400;-95
2023/11/09 06:26:05;;;;;;;6.03;2.35;;;;;;;3.96;100.00;97944.63;4934659;29;20044;-95
2023/11/09 06:28:35;;;;;;;5.72;0.80;;;;;;;4.00;100.00;97956.38;4904788;29;20062;-95
2023/11/09 06:31:04;;;;;;;8.15;0.57;;;;;;;3.95;100.00;97949.03;4921474;29;20054;-95
2023/11/09 06:33:30;;;;;;;2.97;0.50;;;;;;;3.94;100.00;97949.19;4950671;29;20050;-95
2023/11/09 06:35:55;;;;;;;8.00;0.50;;;;;;;3.94;100.00;97952.63;4930288;29;20040;-95
2023/11/09 06:38:22;;;;;;;5.05;0.93;;;;;;;3.96;100.00;97931.56;4958869;28;20035;-95
2023/11/09 06:40:48;;;;;;;6.90;0.60;;;;;;;3.96;100.00;97913.25;4897647;29;20034;-95
2023/11/09 06:43:15;;;;;;;1.98;0.47;;;;;;;3.98;100.00;97913.91;4921910;29;20484;-95
2023/11/09 06:45:41;;;;;;;4.55;0.90;;;;;;;3.92;100.00;97902.31;4952403;29;20127;-95
2023/11/09 06:48:07;;;;;;;2.00;0.70;;;;;;;3.94;100.00;97905.56;4904721;29;20040;-94
2023/11/09 06:50:33;;;;;;;4.10;0.80;;;;;;;3.94;100.00;97902.13;4952691;29;20051;-94
2023/11/09 06:52:59;;;;;;;4.88;1.30;;;;;;;3.92;100.00;97886.63;4918564;29;20140;-95
2023/11/09 06:55:25;;;;;;;2.08;0.85;;;;;;;3.95;100.00;97886.28;4906547;29;20051;-95
2023/11/09 06:57:53;;;;;;;4.78;0.93;;;;;;;4.04;100.00;97894.97;4918771;29;20028;-95
2023/11/09 07:00:24;;;;;;;5.88;0.88;;;;;;;4.03;100.00;97892.50;4920614;29;20040;-94
2023/11/09 07:02:50;;;;;;;6.20;0.30;;;;;;;4.09;100.00;97886.63;4937089;29;20027;-94
2023/11/09 07:05:16;;;;;;;6.45;0.60;;;;;;;4.15;100.00;97890.34;4953944;29;20052;-94
2023/11/09 07:07:42;;;;;;;7.20;0.82;;;;;;;4.19;100.00;97889.03;4914518;29;20706;-94
2023/11/09 07:10:09;;;;;;;10.00;1.70;;;;;;;4.20;100.00;97870.56;4917491;29;20036;-94
2023/11/09 07:12:35;;;;;;;4.50;0.50;;;;;;;4.24;100.00;97857.97;4915179;29;20127;-94
2023/11/09 07:15:02;;;;;;;7.60;1.02;;;;;;;4.31;100.00;97869.41;4916331;29;20028;-95
2023/11/09 07:17:28;;;;;;;5.95;0.70;;;;;;;4.40;100.00;97878.03;4923288;29;20032;-96
2023/11/09 07:19:54;;;;;;;6.15;0.50;;;;;;;4.47;100.00;97868.53;4921466;29;20786;-95
2023/11/09 07:22:22;;;;;;;7.97;1.10;;;;;;;4.56;100.00;97865.88;4929444;29;20042;-95
2023/11/09 07:24:56;;;;;;;1.48;0.30;;;;;;;4.64;100.00;97863.25;4946924;28;20035;-95
2023/11/09 07:27:23;;;;;;;4.57;1.10;;;;;;;4.76;100.00;97857.63;4901774;29;20051;-96
2023/11/09 07:29:50;;;;;;;4.45;0.43;;;;;;;4.81;100.00;97856.13;4950576;29;20984;-96
2023/11/09 07:32:16;;;;;;;3.38;0.50;;;;;;;4.84;100.00;97853.16;4911007;29;20040;-95
2023/11/09 07:34:42;;;;;;;4.25;0.60;;;;;;;4.87;100.00;97851.19;4921815;29;20046;-95
2023/11/09 07:37:13;;;;;;;3.20;0.52;;;;;;;4.94;100.00;97852.94;4896953;29;20605;-96
2023/11/09 07:39:40;;;;;;;4.25;0.47;;;;;;;4.98;100.00;97845.56;4936572;29;20122;-95
2023/11/09 07:42:07;;;;;;;1.50;0.35;;;;;;;5.05;100.00;97848.28;4908066;29;20034;-95
2023/11/09 07:44:33;;;;;;;2.97;0.50;;;;;;;5.06;100.00;97842.91;4927435;29;20134;-94
2023/11/09 07:46:59;;;;;;;4.28;0.50;;;;;;;5.05;100.00;97833.41;4914532;28;20028;-90
2023/11/09 07:49:29;;;;;;;3.70;0.32;;;;;;;5.05;100.00;97841.25;4927234;29;20042;-92
2023/11/09 07:51:55;;;;;;;4.97;0.50;;;;;;;5.05;100.00;97838.66;4935247;29;20063;-93
2023/11/09 07:54:21;;;;;;;1.02;0.28;;;;;;;5.03;100.00;97831.97;4906188;29;20063;-93
2023/11/09 07:56:55;;;;;;;5.90;0.50;;;;;;;5.10;100.00;97840.75;4921420;29;20558;-95
2023/11/09 07:59:23;;;;;;;4.75;0.38;;;;;;;4.99;100.00;97834.09;4953386;28;20484;-95
2023/11/09 08:01:49;;;;;;;4.10;0.47;;;;;;;5.01;100.00;97841.78;4903877;28;20031;-96
2023/11/09 08:04:16;;;;;;;1.60;0.40;;;;;;;4.98;100.00;97829.88;4935436;29;20043;-96
2023/11/09 08:06:45;;;;;;;4.57;0.30;;;;;;;5.04;100.00;97816.09;4929404;29;20047;-96
2023/11/09 08:09:15;;;;;;;2.05;0.43;;;;;;;5.11;100.00;97816.22;4898433;29;20046;-95
2023/11/09 08:11:43;;;;;;;1.52;0.43;;;;;;;5.19;100.00;97807.47;4916745;28;20369;-95
2023/11/09 08:14:09;;;;;;;1.13;0.30;;;;;;;5.29;100.00;97812.47;4906890;29;20039;-96
2023/11/09 08:16:35;;;;;;;2.63;0.30;;;;;;;5.29;100.00;97812.47;4912756;29;20039;-95
2023/11/09 08:19:03;;;;;;;1.63;0.30;;;;;;;5.33;100.00;97811.97;4959585;28;20071;-96
2023/11/09 08:21:32;;;;;;;2.03;0.28;;;;;;;5.39;100.00;97801.75;4910192;29;20507;-94
2023/11/09 08:23:58;;;;;;;0.98;0.35;;;;;;;5.37;100.00;97790.66;4942320;28;20042;-95
2023/11/09 08:26:25;;;;;;;1.23;0.20;;;;;;;5.43;100.00;97789.94;4927450;29;20042;-95
2023/11/09 08:28:52;;;;;;;2.20;0.40;;;;;;;5.46;100.00;97792.22;4934997;29;20043;-95
2023/11/09 08:31:18;;;;;;;1.85;0.50;;;;;;;5.63;100.00;97797.28;4935293;29;20130;-95
2023/11/09 08:33:45;;;;;;;2.67;0.52;;;;;;;5.66;100.00;97794.31;4939193;29;20166;-96
2023/11/09 08:36:11;;;;;;;1.60;0.20;;;;;;;5.71;100.00;97792.78;4943023;29;20451;-96
2023/11/09 08:38:39;;;;;;;5.07;1.13;;;;;;;5.78;100.00;97792.06;4923844;29;20134;-94
2023/11/09 08:41:06;;;;;;;3.25;0.38;;;;;;;5.75;100.00;97784.56;4903981;29;20499;-95
2023/11/09 08:43:33;;;;;;;2.22;0.70;;;;;;;5.71;100.00;97774.44;4922164;29;20377;-95
2023/11/09 08:46:02;;;;;;;1.95;0.47;;;;;;;5.66;100.00;97768.09;4927635;29;20091;-96
2023/11/09 08:48:30;;;;;;;3.83;0.60;;;;;;;5.59;100.00;97760.97;4921299;28;20055;-96
2023/11/09 08:51:01;;;;;;;2.65;0.50;;;;;;;5.62;100.00;97761.59;4934960;29;20091;-94
2023/11/09 08:53:31;;;;;;;1.08;0.30;;;;;;;5.66;100.00;97757.63;4933175;28;20071;-94
2023/11/09 08:56:01;;;;;;;6.90;0.73;;;;;;;5.63;100.00;97748.31;4945043;29;20136;-94
2023/11/09 08:58:28;;;;;;;2.70;0.38;;;;;;;5.64;100.00;97754.38;4950461;28;20032;-95
2023/11/09 09:00:54;;;;;;;3.70;0.60;;;;;;;5.57;100.00;97749.84;4902885;29;20039;-96
2023/11/09 09:03:23;;;;;;;2.50;0.35;;;;;;;5.56;100.00;97756.06;4932851;28;20477;-95
2023/11/09 09:05:52;;;;;;;2.05;0.50;;;;;;;5.57;100.00;97739.34;4954916;28;20067;-96
2023/11/09 09:08:18;;;;;;;3.25;0.50;;;;;;;5.58;100.00;97738.38;4950183;28;20480;-95
2023/11/09 09:10:44;;;;;;;2.45;0.40;;;;;;;5.64;100.00;97736.84;4939743;29;20050;-95
2023/11/09 09:13:11;;;;;;;5.13;0.40;;;;;;;5.68;100.00;97734.69;4904611;29;20031;-94
2023/11/09 09:15:39;;;;;;;5.50;0.45;;;;;;;5.72;100.00;97728.06;4949041;28;20046;-95
2023/11/09 09:18:09;;;;;;;2.35;0.52;;;;;;;5.73;100.00;97714.00;4917793;29;20046;-95
2023/11/09 09:20:35;;;;;;;3.42;0.40;;;;;;;5.83;100.00;97716.31;4914494;29;20031;-95
2023/11/09 09:23:04;;;;;;;5.03;1.05;;;;;;;5.87;100.00;97719.41;4894747;29;20397;-94
2023/11/09 09:25:30;;;;;;;8.25;0.55;;;;;;;5.92;100.00;97712.63;4909676;29;20043;-94
2023/11/09 09:27:56;;;;;;;7.40;0.90;;;;;;;5.94;100.00;97726.34;4954795;28;20034;-94
2023/11/09 09:30:24;;;;;;;3.60;1.25;;;;;;;5.95;100.00;97719.31;4939928;29;20039;-94
2023/11/09 09:32:52;;;;;;;3.78;0.68;;;;;;;5.92;100.00;97723.13;4921863;29;20547;-95
2023/11/09 09:35:23;;;;;;;5.20;0.63;;;;;;;5.94;100.00;97723.72;4933019;29;20063;-95
2023/11/09 09:37:50;;;;;;;5.35;0.88;;;;;;;5.92;100.00;97712.63;4940531;29;20027;-94
2023/11/09 09:40:19;;;;;;;3.75;0.43;;;;;;;5.98;100.00;97718.94;4940842;29;20046;-95
2023/11/09 09:42:47;;;;;;;2.28;0.45;;;;;;;6.11;100.00;97709.63;4944910;28;20163;-92
2023/11/09 09:45:17;;;;;;;4.88;0.80;;;;;;;6.25;100.00;97702.75;4936100;29;20077;-90
2023/11/09 09:47:45;;;;;;;4.40;0.40;;;;;;;6.39;100.00;97695.81;4944908;28;20039;-94
2023/11/09 09:50:14;;;;;;;6.38;1.00;;;;;;;6.47;100.00;97703.59;4956408;28;20082;-94
2023/11/09 09:52:46;;;;;;;6.95;0.70;;;;;;;6.55;100.00;97700.84;4909658;29;20043;-94
2023/11/09 09:55:18;;;;;;;4.75;0.55;;;;;;;6.56;100.00;97691.97;4929687;29;20106;-93
2023/11/09 09:57:45;;;;;;;4.78;0.93;;;;;;;6.62;100.00;97687.81;4949352;29;20381;-94
2023/11/09 10:00:14;;;;;;;7.10;0.60;;;;;;;6.64;100.00;97708.63;4926310;28;20039;-94
2023/11/09 10:02:40;;;;;;;2.22;0.50;;;;;;;6.62;100.00;97702.72;4908778;29;20043;-94
2023/11/09 10:05:12;;;;;;;6.22;0.80;;;;;;;6.61;100.00;97711.63;4924409;28;20031;-94
2023/11/09 10:08:00;;;;;;;4.20;0.60;;;;;;;6.57;100.00;97698.88;4908643;29;20038;-93
2023/11/09 10:10:26;;;;;;;4.53;1.25;;;;;;;6.55;100.00;97700.03;4950532;28;20050;-94
2023/11/09 10:12:55;;;;;;;4.90;0.60;;;;;;;6.58;100.00;97704.91;4970583;28;20032;-95
2023/11/09 10:15:24;;;;;;;6.80;0.77;;;;;;;6.65;100.00;97700.56;4942714;29;20528;-95
2023/11/09 10:17:54;;;;;;;5.35;0.60;;;;;;;6.87;100.00;97702.34;4915922;28;20050;-96
2023/11/09 10:20:20;;;;;;;5.30;0.68;;;;;;;6.90;100.00;97692.28;4928167;29;20095;-94
2023/11/09 10:22:48;;;;;;;7.75;1.00;;;;;;;6.98;100.00;97699.22;4935318;28;20043;-92
2023/11/09 10:25:16;;;;;;;6.68;0.75;;;;;;;6.96;100.00;97701.22;4935458;29;20122;-93
2023/11/09 10:27:43;;;;;;;5.60;0.75;;;;;;;6.84;100.00;97700.91;4953862;28;20032;-90
2023/11/09 10:30:09;;;;;;;3.67;0.55;;;;;;;6.78;100.00;97709.53;4923930;29;20155;-94
2023/11/09 10:32:36;;;;;;;5.65;1.15;;;;;;;6.72;100.00;97703.22;4926500;29;20067;-96
2023/11/09 10:35:05;;;;;;;9.05;1.40;;;;;;;6.79;100.00;97700.66;4959175;28;20043;-95
2023/11/09 10:37:37;;;;;;;4.97;0.85;;;;;;;6.84;100.00;97721.94;4954140;28;20043;-94
2023/11/09 10:40:12;;;;;;;4.78;0.70;;;;;;;6.91;100.00;97706.25;4963271;28;20373;-92
2023/11/09 10:42:39;;;;;;;4.20;0.70;;;;;;;6.91;100.00;97722.00;4927693;29;20035;-96
2023/11/09 10:45:10;;;;;;;6.80;0.90;;;;;;;6.90;100.00;97710.66;4947240;29;20469;-96
2023/11/09 10:47:39;;;;;;;1.20;0.30;;;;;;;6.89;100.00;97711.69;4945337;28;20103;-96
2023/11/09 10:50:13;;;;;;;4.93;0.73;;;;;;;6.88;100.00;97704.78;4950478;29;20084;-96
2023/11/09 10:52:43;;;;;;;4.22;0.70;;;;;;;6.88;100.00;97704.00;4933226;29;20046;-96
2023/11/09 10:55:16;;;;;;;4.20;0.90;;;;;;;6.81;100.00;97710.00;4950045;28;20035;-96
2023/11/09 10:57:48;;;;;;;5.15;0.70;;;;;;;6.80;100.00;97712.81;4922041;29;20055;-95
2023/11/09 11:00:26;;;;;;;6.53;1.00;;;;;;;6.73;100.00;97691.75;4938392;29;20531;-94
2023/11/09 11:02:53;;;;;;;4.38;0.52;;;;;;;6.79;100.00;97716.41;4916214;29;20158;-93
2023/11/09 11:05:25;;;;;;;4.57;0.77;;;;;;;6.78;100.00;97710.38;4951286;29;20042;-93
2023/11/09 11:08:03;;;;;;;6.50;0.70;;;;;;;6.86;100.00;97706.81;4938713;28;20130;-96
2023/11/09 11:10:30;;;;;;;5.28;1.00;;;;;;;6.88;100.00;97706.63;4926151;29;20047;-96
2023/11/09 11:13:04;;;;;;;7.03;0.98;;;;;;;7.01;100.00;97722.47;4924354;29;20043;-90
2023/11/09 11:15:48;;;;;;;7.75;2.00;;;;;;;7.21;100.00;97716.59;4953815;28;20043;-94
2023/11/09 11:18:21;;;;;;;5.97;0.95;;;;;;;7.43;100.00;97719.16;4935502;29;20075;-91
2023/11/09 11:21:20;;;;;;;4.28;1.05;;;;;;;7.58;100.00;97713.78;4923446;29;20134;-94
2023/11/09 11:24:04;;;;;;;8.35;1.13;;;;;;;7.68;100.00;97711.63;4922931;29;20079;-93
2023/11/09 11:26:51;;;;;;;3.42;0.63;;;;;;;7.71;100.00;97714.91;4920061;29;20383;-96
2023/11/09 11:29:18;;;;;;;5.75;1.08;;;;;;;7.60;100.00;97726.78;4958801;28;20039;-96
2023/11/09 11:31:46;;;;;;;2.40;0.80;;;;;;;7.59;100.00;97736.47;4946887;29;20078;-96
2023/11/09 11:34:16;;;;;;;7.45;1.23;;;;;;;7.57;100.00;97752.44;4923294;29;20099;-96
2023/11/09 11:36:49;;;;;;;5.53;1.10;;;;;;;7.34;100.00;97742.16;4933151;28;20046;-96
2023/11/09 11:39:41;;;;;;;4.65;0.68;;;;;;;7.02;100.00;97729.38;4930736;29;20043;-96
2023/11/09 11:42:17;;;;;;;3.95;0.50;;;;;;;6.90;100.00;97717.72;4923604;28;20103;-96
2023/11/09 11:45:01;;;;;;;4.97;0.70;;;;;;;6.80;100.00;97737.22;4951708;29;20114;-96
2023/11/09 11:47:38;;;;;;;0.65;0.30;;;;;;;6.71;100.00;97733.09;4935894;29;20047;-96
2023/11/09 11:50:09;;;;;;;1.35;0.30;;;;;;;6.64;100.00;97730.41;4935025;29;20039;-96
2023/11/09 11:52:36;;;;;;;2.25;0.60;;;;;;;6.56;100.00;97726.09;4933737;29;20122;-96
2023/11/09 11:55:03;;;;;;;3.90;0.30;;;;;;;6.67;100.00;97724.78;4939113;29;20046;-96
2023/11/09 11:57:34;;;;;;;1.52;0.30;;;;;;;6.68;100.00;97717.72;4955795;29;20032;-96